EA7CL Malaga ES current weather conditions

sailwx.info

Wind from 281

Air temperature 17.8° C
Dewpoint 8.1° C

Last reported at 2020-Jan-17 17:45 UTC.
Time now 2020-Jan-17 18:21 UTC

Location: N 36°44' W 004°27'.
View on Google Maps.

See reports from other nearby stations

  
Tides and Currents Weather Stations Pressure Air Temp Water Temp Dewpoint Dewpoint Depression Visibility Wind Speed Wind Dir Waves Ship Positions
date/time (UTC)wind fromknots sea level pressurealtimeterstation pressurevisibilityair tempwater tempwave heightnotes
2020-Jan-17 17:45 281 17.8
2020-Jan-17 17:35 290 0 gusting 13 18.3
2020-Jan-17 17:25 282 0 gusting 10 18.3
2020-Jan-17 17:15 286 1 gusting 13 18.9
2020-Jan-17 17:05 298 1 gusting 10 18.9
2020-Jan-17 16:55 310 18.9
2020-Jan-17 16:45 274 18.9
2020-Jan-17 16:35 301 4 gusting 17 19.4
2020-Jan-17 16:25 304 4 gusting 17 19.4
2020-Jan-17 16:15 289 19.4
2020-Jan-17 16:05 237 19.4
2020-Jan-17 15:55 279 19.4
2020-Jan-17 15:45 295 19.4
2020-Jan-17 15:35 295 5 gusting 14 19.4
2020-Jan-17 15:25 300 5 gusting 14 19.4
2020-Jan-17 15:15 299 6 gusting 17 19.4
2020-Jan-17 15:05 281 2 gusting 14 19.4
2020-Jan-17 14:55 291 19.4
2020-Jan-17 14:45 287 0 gusting 13 19.4
2020-Jan-17 14:35 273 0 gusting 10 19.4
2020-Jan-17 14:25 294 7 gusting 19 19.4
2020-Jan-17 14:15 293 3 gusting 13 19.4
2020-Jan-17 14:05 268 5 gusting 21 19.4
2020-Jan-17 13:55 268 0 gusting 8 19.4
2020-Jan-17 13:45 299 4 gusting 14 18.9
2020-Jan-17 13:35 297 0 gusting 13 18.9
2020-Jan-17 13:25 301 9 gusting 27 19.4
2020-Jan-17 13:15 299 7 gusting 21 19.4
2020-Jan-17 13:05 308 6 gusting 19 19.4
2020-Jan-17 12:55 287 0 gusting 13 19.4
2020-Jan-17 12:45 300 3 gusting 19 19.4
2020-Jan-17 12:35 291 2 gusting 17 19.4
2020-Jan-17 12:25 335 0 gusting 13 18.9
2020-Jan-17 12:15 279 5 gusting 17 18.9
2020-Jan-17 12:05 293 8 gusting 30 18.9
2020-Jan-17 11:55 296 5 gusting 27 18.9
2020-Jan-17 11:45 294 6 gusting 21 18.3
2020-Jan-17 11:35 310 4 gusting 19 17.8
2020-Jan-17 11:25 281 0 gusting 8 17.2
2020-Jan-17 11:15 232 16.7
2020-Jan-17 11:05 237 0 gusting 13 16.7
2020-Jan-17 10:55 246 7 gusting 13 16.1
2020-Jan-17 10:45 246 8 gusting 14 16.1
2020-Jan-17 10:35 258 6 gusting 10 15.6
2020-Jan-17 10:25 240 6 gusting 10 15.0
2020-Jan-17 10:15 247 6 gusting 10 14.4
2020-Jan-17 10:05 239 4 gusting 8 14.4
2020-Jan-17 09:55 13.9
2020-Jan-17 09:45 13.9
2020-Jan-17 09:35 283 3 gusting 13 13.9
2020-Jan-17 09:25 295 0 gusting 8 13.9
2020-Jan-17 09:15 281 0 gusting 13 13.9
2020-Jan-17 09:05 287 2 gusting 14 13.3
2020-Jan-17 08:55 282 1 gusting 10 12.8
2020-Jan-17 08:45 286 0 gusting 8 12.2
2020-Jan-17 08:35 11.7
2020-Jan-17 08:25 236 11.7
2020-Jan-17 08:15 11.7
2020-Jan-17 08:05 11.1
2020-Jan-17 07:55 11.1
2020-Jan-17 07:45 11.1
2020-Jan-17 07:35 11.1
2020-Jan-17 07:25 11.1
2020-Jan-17 07:15 244 11.1
2020-Jan-17 07:05 11.1
2020-Jan-17 06:55 11.1
2020-Jan-17 06:45 11.1
2020-Jan-17 06:35 283 11.1
2020-Jan-17 06:25 11.1
2020-Jan-17 06:15 10.6
2020-Jan-17 06:05 294 10.6
2020-Jan-17 05:55 242 10.6
2020-Jan-17 05:45 10.6
2020-Jan-17 05:35 11.1
2020-Jan-17 05:25 10.6
2020-Jan-17 05:15 11.1
2020-Jan-17 05:05 11.1
2020-Jan-17 04:55 11.7
2020-Jan-17 04:45 12.2
2020-Jan-17 04:35 12.8
2020-Jan-17 04:25 12.8
2020-Jan-17 04:15 12.8
2020-Jan-17 04:05 12.2
2020-Jan-17 03:55 12.2
2020-Jan-17 03:45 11.7
2020-Jan-17 03:35 11.7
2020-Jan-17 03:25 11.7
2020-Jan-17 03:15 11.1
2020-Jan-17 03:05 11.1
2020-Jan-17 02:55 11.1
2020-Jan-17 02:45 11.1
2020-Jan-17 02:35 11.1
2020-Jan-17 02:25 11.1
2020-Jan-17 02:15 11.1
2020-Jan-17 02:05 11.7
2020-Jan-17 01:55 11.7
2020-Jan-17 01:45 11.7
2020-Jan-17 01:35 11.7
2020-Jan-17 01:29 11.1
2020-Jan-17 01:15 10.6
2020-Jan-17 01:05 11.1
2020-Jan-17 00:55 11.1
2020-Jan-17 00:45 11.1
2020-Jan-17 00:35 11.1
2020-Jan-17 00:25 11.1
2020-Jan-17 00:15 11.1
2020-Jan-17 00:05 11.1
2020-Jan-16 23:55 11.1
2020-Jan-16 23:45 11.7
2020-Jan-16 23:35 11.7
2020-Jan-16 23:25 11.7
2020-Jan-16 23:20 11.7
2020-Jan-16 23:10 11.7
2020-Jan-16 23:00 11.7
2020-Jan-16 22:50 11.7
2020-Jan-16 22:40 11.7
2020-Jan-16 22:30 11.7
2020-Jan-16 22:20 11.7
2020-Jan-16 22:10 11.7
2020-Jan-16 22:00 11.7
2020-Jan-16 21:50 11.7
2020-Jan-16 21:40 11.7
2020-Jan-16 21:30 11.7
2020-Jan-16 21:20 11.7
2020-Jan-16 21:10 11.7
2020-Jan-16 21:00 11.7
2020-Jan-16 20:50 12.2
2020-Jan-16 20:40 12.2
2020-Jan-16 20:30 12.2
2020-Jan-16 20:20 12.2
2020-Jan-16 20:10 12.8
2020-Jan-16 20:00 12.8
2020-Jan-16 19:50 12.8
2020-Jan-16 19:40 12.8
2020-Jan-16 19:30 13.3
2020-Jan-16 19:20 13.3
2020-Jan-16 19:10 13.3
2020-Jan-16 19:00 13.3
2020-Jan-16 18:50 13.9
2020-Jan-16 18:40 13.9
2020-Jan-16 18:30 13.9
2020-Jan-16 18:20 13.9
2020-Jan-16 18:10 13.9
2020-Jan-16 18:00 14.4
2020-Jan-16 17:50 14.4
2020-Jan-16 17:40 14.4
2020-Jan-16 17:30 15.0
2020-Jan-16 17:20 15.6
2020-Jan-16 17:10 15.6
2020-Jan-16 17:00 15.6
2020-Jan-16 16:50 15.6
2020-Jan-16 16:40 16.1
2020-Jan-16 16:30 16.1
2020-Jan-16 16:20 16.1
2020-Jan-16 16:10 16.1
2020-Jan-16 16:00 16.1
2020-Jan-16 15:50 16.1
2020-Jan-16 15:40 16.1
2020-Jan-16 15:30 16.1
2020-Jan-16 15:20 16.7
2020-Jan-16 15:10 16.7
2020-Jan-16 15:00 16.7
2020-Jan-16 14:50 16.7
2020-Jan-16 14:40 16.1
2020-Jan-16 14:30 16.1
2020-Jan-16 14:20 15.6
2020-Jan-16 14:10 16.1
2020-Jan-16 14:00 16.1
2020-Jan-16 13:50 16.1
2020-Jan-16 13:40 16.1
2020-Jan-16 13:30 16.7
2020-Jan-16 13:20 16.1
2020-Jan-16 13:10 16.1
2020-Jan-16 13:00 16.1
2020-Jan-16 12:50 16.1
2020-Jan-16 12:40 108 16.1
2020-Jan-16 12:30 16.1
2020-Jan-16 12:20 16.7
2020-Jan-16 12:10 137 2 gusting 6 16.7
2020-Jan-16 12:00 145 0 gusting 4 17.2
2020-Jan-16 11:50 16.7
2020-Jan-16 11:40 16.7
2020-Jan-16 11:30 16.7
2020-Jan-16 11:20 16.7
2020-Jan-16 11:10 16.1
2020-Jan-16 11:00 15.6
2020-Jan-16 10:50 15.0
2020-Jan-16 10:40 14.4
2020-Jan-16 10:30 13.9
2020-Jan-16 10:20 13.3
2020-Jan-16 10:10 12.8
2020-Jan-16 10:00 12.2
2020-Jan-16 09:50 11.7
2020-Jan-16 09:40 11.7
2020-Jan-16 09:30 11.7
2020-Jan-16 09:20 11.7
2020-Jan-16 09:10 11.7
2020-Jan-16 09:00 11.7
2020-Jan-16 08:50 11.7
2020-Jan-16 08:40 11.1
2020-Jan-16 08:30 10.0
2020-Jan-16 08:20 10.0
2020-Jan-16 08:10 9.4
2020-Jan-16 08:00 9.4
2020-Jan-16 07:50 9.4
2020-Jan-16 07:40 9.4
2020-Jan-16 07:30 9.4
2020-Jan-16 07:20 10.0
2020-Jan-16 07:10 10.0
2020-Jan-16 07:00 10.0
2020-Jan-16 06:50 10.0
2020-Jan-16 06:40 10.0
2020-Jan-16 06:30 10.0
2020-Jan-16 06:20 10.0
2020-Jan-16 06:10 10.0
2020-Jan-16 06:00 10.6
2020-Jan-16 05:50 10.6
2020-Jan-16 05:40 10.6
2020-Jan-16 05:30 10.0
2020-Jan-16 05:20 10.0
2020-Jan-16 05:10 10.6
2020-Jan-16 05:00 10.6
2020-Jan-16 04:50 10.6
2020-Jan-16 04:40 10.6
2020-Jan-16 04:30 10.6
2020-Jan-16 04:20 10.6
2020-Jan-16 04:10 10.6
2020-Jan-16 04:00 10.6
2020-Jan-16 03:50 10.6
2020-Jan-16 03:40 10.6
2020-Jan-16 03:30 10.6
2020-Jan-16 03:20 10.6
2020-Jan-16 03:10 10.6
2020-Jan-16 03:00 10.6
2020-Jan-16 02:50 10.6
2020-Jan-16 02:40 10.6
2020-Jan-16 02:30 10.6
2020-Jan-16 02:20 10.6
2020-Jan-16 02:10 10.6
2020-Jan-16 02:00 10.6
2020-Jan-16 01:50 10.6
2020-Jan-16 01:40 10.6
2020-Jan-16 01:30 10.6
2020-Jan-16 01:20 10.6
2020-Jan-16 01:10 11.1
2020-Jan-16 01:00 11.1
2020-Jan-16 00:50 11.1
2020-Jan-16 00:40 11.7
2020-Jan-16 00:30 11.7
2020-Jan-16 00:20 11.7
2020-Jan-16 00:10 11.7
2020-Jan-16 00:00 11.7
2020-Jan-15 23:50 11.7
2020-Jan-15 23:40 11.7
2020-Jan-15 23:30 11.7
2020-Jan-15 23:20 11.7
2020-Jan-15 23:10 11.7
2020-Jan-15 23:00 11.7
2020-Jan-15 22:50 11.7
2020-Jan-15 22:40 11.7
2020-Jan-15 22:30 12.2
2020-Jan-15 22:20 12.2
2020-Jan-15 22:10 12.2
2020-Jan-15 22:00 12.2
2020-Jan-15 21:50 12.2
2020-Jan-15 21:40 12.8
2020-Jan-15 21:30 12.8
2020-Jan-15 21:20 12.8
2020-Jan-15 21:10 12.8
2020-Jan-15 21:00 12.2
2020-Jan-15 20:50 12.8
2020-Jan-15 20:40 12.8
2020-Jan-15 20:30 12.8
2020-Jan-15 20:20 13.3
2020-Jan-15 20:10 13.3
2020-Jan-15 20:00 13.3
2020-Jan-15 19:50 13.9
2020-Jan-15 19:40 13.9
2020-Jan-15 19:30 13.9
2020-Jan-15 19:20 13.9
2020-Jan-15 19:10 14.4
2020-Jan-15 19:00 14.4
2020-Jan-15 18:50 14.4
2020-Jan-15 18:40 14.4
2020-Jan-15 18:30 15.0
2020-Jan-15 18:20 15.0
2020-Jan-15 18:10 15.0
2020-Jan-15 18:00 074 0 gusting 6 15.0